createdAt,value
2022-10-18T00:02:11.041Z,100.00
2022-10-18T00:04:37.740Z,100.00
2022-10-18T00:07:04.489Z,100.00
2022-10-18T00:09:31.156Z,100.00
2022-10-18T00:11:57.903Z,100.00
2022-10-18T00:14:24.360Z,100.00
2022-10-18T00:16:50.815Z,100.00
2022-10-18T00:19:17.323Z,100.00
2022-10-18T00:24:11.193Z,100.00
2022-10-18T00:26:37.692Z,100.00
2022-10-18T00:29:05.878Z,100.00
2022-10-18T00:31:37.443Z,100.00
2022-10-18T00:34:07.343Z,100.00
2022-10-18T00:36:34.842Z,100.00
2022-10-18T00:39:03.212Z,100.00
2022-10-18T00:41:31.829Z,100.00
2022-10-18T00:44:26.121Z,100.00
2022-10-18T00:46:56.904Z,100.00
2022-10-18T00:49:29.768Z,100.00
2022-10-18T00:51:58.176Z,100.00
2022-10-18T00:54:25.397Z,100.00
2022-10-18T00:56:51.973Z,100.00
2022-10-18T00:59:19.037Z,100.00
2022-10-18T01:01:46.316Z,100.00
2022-10-18T01:04:15.181Z,100.00
2022-10-18T01:07:05.964Z,100.00
2022-10-18T01:09:40.797Z,100.00
2022-10-18T01:12:19.608Z,100.00
2022-10-18T01:15:09.287Z,100.00
2022-10-18T01:17:43.708Z,100.00
2022-10-18T01:20:28.960Z,100.00
2022-10-18T01:23:33.132Z,100.00
2022-10-18T01:26:24.391Z,100.00
2022-10-18T01:29:34.652Z,100.00
2022-10-18T01:32:09.977Z,100.00
2022-10-18T01:34:38.975Z,100.00
2022-10-18T01:37:11.221Z,100.00
2022-10-18T01:39:40.819Z,100.00
2022-10-18T01:42:12.102Z,100.00
2022-10-18T01:44:40.787Z,100.00
2022-10-18T01:47:10.795Z,100.00
2022-10-18T01:49:37.323Z,100.00
2022-10-18T01:52:03.890Z,100.00
2022-10-18T01:54:42.992Z,100.00
2022-10-18T01:57:14.592Z,100.00
2022-10-18T01:59:43.956Z,100.00
2022-10-18T02:02:28.602Z,100.00
2022-10-18T02:05:13.515Z,100.00
2022-10-18T02:08:22.944Z,100.00
2022-10-18T02:10:56.712Z,100.00
2022-10-18T02:13:29.724Z,100.00
2022-10-18T02:16:03.432Z,100.00
2022-10-18T02:18:38.835Z,100.00
2022-10-18T02:21:10.638Z,100.00
2022-10-18T02:23:38.360Z,100.00
2022-10-18T02:26:05.971Z,100.00
2022-10-18T02:28:32.515Z,100.00
2022-10-18T02:31:36.037Z,100.00
2022-10-18T02:34:22.480Z,100.00
2022-10-18T02:37:00.141Z,100.00
2022-10-18T02:39:34.968Z,100.00
2022-10-18T02:42:06.774Z,100.00
2022-10-18T02:44:34.310Z,100.00
2022-10-18T02:47:01.483Z,100.00
2022-10-18T02:49:28.354Z,100.00
2022-10-18T02:51:54.856Z,100.00
2022-10-18T02:54:21.372Z,100.00
2022-10-18T02:56:47.845Z,100.00
2022-10-18T02:59:14.552Z,100.00
2022-10-18T03:01:41.102Z,100.00
2022-10-18T03:04:07.590Z,100.00
2022-10-18T03:06:34.131Z,100.00
2022-10-18T03:09:03.746Z,100.00
2022-10-18T03:11:30.239Z,100.00
2022-10-18T03:13:56.726Z,100.00
2022-10-18T03:16:23.468Z,100.00
2022-10-18T03:18:50.005Z,100.00
2022-10-18T03:21:16.469Z,100.00
2022-10-18T03:23:43.587Z,100.00
2022-10-18T03:26:10.162Z,100.00
2022-10-18T03:28:36.704Z,100.00
2022-10-18T03:31:04.720Z,100.00
2022-10-18T03:33:32.538Z,100.00
2022-10-18T03:35:59.110Z,100.00
2022-10-18T03:38:25.641Z,100.00
2022-10-18T03:40:52.112Z,100.00
2022-10-18T03:43:18.724Z,100.00
2022-10-18T03:45:45.667Z,100.00
2022-10-18T03:48:12.163Z,100.00
2022-10-18T03:50:38.734Z,100.00
2022-10-18T03:53:05.233Z,100.00
2022-10-18T03:55:31.869Z,100.00
2022-10-18T03:57:58.352Z,100.00
2022-10-18T04:00:24.863Z,100.00
2022-10-18T04:02:54.923Z,100.00
2022-10-18T04:05:27.978Z,100.00
2022-10-18T04:07:54.940Z,100.00
2022-10-18T04:10:21.704Z,100.00
2022-10-18T04:12:48.150Z,100.00
2022-10-18T04:15:14.704Z,100.00
2022-10-18T04:17:41.159Z,100.00
2022-10-18T04:20:08.183Z,100.00
2022-10-18T04:22:34.642Z,100.00
2022-10-18T04:25:01.320Z,100.00
2022-10-18T04:27:27.832Z,100.00
2022-10-18T04:29:54.296Z,100.00
2022-10-18T04:32:20.813Z,100.00
2022-10-18T04:34:47.262Z,100.00
2022-10-18T04:37:13.795Z,100.00
2022-10-18T04:39:40.299Z,100.00
2022-10-18T04:42:06.757Z,100.00
2022-10-18T04:44:34.295Z,100.00
2022-10-18T04:47:00.771Z,100.00
2022-10-18T04:49:27.240Z,100.00
2022-10-18T04:51:53.707Z,100.00
2022-10-18T04:54:21.850Z,100.00
2022-10-18T04:56:50.456Z,100.00
2022-10-18T04:59:17.036Z,100.00
2022-10-18T05:01:43.575Z,100.00
2022-10-18T05:04:10.120Z,100.00
2022-10-18T05:06:36.591Z,100.00
2022-10-18T05:09:03.172Z,100.00
2022-10-18T05:11:29.700Z,100.00
2022-10-18T05:13:56.249Z,100.00
2022-10-18T05:16:22.729Z,100.00
2022-10-18T05:18:49.269Z,100.00
2022-10-18T05:21:16.720Z,100.00
2022-10-18T05:23:43.210Z,100.00
2022-10-18T05:26:09.698Z,100.00
2022-10-18T05:28:40.518Z,100.00
2022-10-18T05:31:09.893Z,100.00
2022-10-18T05:33:36.400Z,100.00
2022-10-18T05:36:04.010Z,100.00
2022-10-18T05:38:30.924Z,100.00
2022-10-18T05:40:58.897Z,100.00
2022-10-18T05:43:29.117Z,100.00
2022-10-18T05:45:55.678Z,100.00
2022-10-18T05:48:22.241Z,100.00
2022-10-18T05:50:48.735Z,100.00
2022-10-18T05:53:35.145Z,100.00
2022-10-18T05:56:02.689Z,100.00
2022-10-18T05:58:29.250Z,100.00
2022-10-18T06:00:59.774Z,100.00
2022-10-18T06:03:27.625Z,100.00
2022-10-18T06:06:00.135Z,100.00
2022-10-18T06:08:26.782Z,100.00
2022-10-18T06:10:53.339Z,100.00
2022-10-18T06:13:19.810Z,100.00
2022-10-18T06:15:46.304Z,100.00
2022-10-18T06:18:12.852Z,100.00
2022-10-18T06:20:39.382Z,100.00
2022-10-18T06:23:05.948Z,100.00
2022-10-18T06:25:32.441Z,100.00
2022-10-18T06:27:58.926Z,100.00
2022-10-18T06:30:25.459Z,100.00
2022-10-18T06:32:51.928Z,100.00
2022-10-18T06:35:18.374Z,100.00
2022-10-18T06:37:44.852Z,100.00
2022-10-18T06:40:11.492Z,100.00
2022-10-18T06:42:37.950Z,100.00
2022-10-18T06:45:05.669Z,100.00
2022-10-18T06:47:32.203Z,100.00
2022-10-18T06:49:59.569Z,100.00
2022-10-18T06:52:26.276Z,100.00
2022-10-18T06:54:53.707Z,100.00
2022-10-18T06:57:20.880Z,100.00
2022-10-18T06:59:47.348Z,100.00
2022-10-18T07:02:17.336Z,100.00
2022-10-18T07:04:43.932Z,100.00
2022-10-18T07:07:10.455Z,100.00
2022-10-18T07:09:36.923Z,100.00
2022-10-18T07:12:03.527Z,100.00
2022-10-18T07:14:29.987Z,100.00
2022-10-18T07:16:59.245Z,100.00
2022-10-18T07:19:25.776Z,100.00
2022-10-18T07:21:52.261Z,100.00
2022-10-18T07:24:18.743Z,100.00
2022-10-18T07:26:45.289Z,100.00
2022-10-18T07:29:12.031Z,100.00
2022-10-18T07:31:39.302Z,100.00
2022-10-18T07:34:07.025Z,100.00
2022-10-18T07:36:33.881Z,100.00
2022-10-18T07:39:00.421Z,100.00
2022-10-18T07:41:27.019Z,100.00
2022-10-18T07:43:53.775Z,100.00
2022-10-18T07:46:22.316Z,100.00
2022-10-18T07:48:49.499Z,100.00
2022-10-18T07:51:16.859Z,100.00
2022-10-18T07:53:43.434Z,100.00
2022-10-18T07:56:16.062Z,100.00
2022-10-18T07:58:43.848Z,100.00
2022-10-18T08:01:10.478Z,100.00
2022-10-18T08:03:37.863Z,100.00
2022-10-18T08:06:09.030Z,100.00
2022-10-18T08:08:37.222Z,100.00
2022-10-18T08:11:12.150Z,100.00
2022-10-18T08:13:38.764Z,100.00
2022-10-18T08:16:07.670Z,100.00
2022-10-18T08:18:35.205Z,100.00
2022-10-18T08:21:04.261Z,100.00
2022-10-18T08:23:30.789Z,100.00
2022-10-18T08:26:00.473Z,100.00
2022-10-18T08:28:27.020Z,100.00
2022-10-18T08:30:53.540Z,100.00
2022-10-18T08:33:20.048Z,100.00
2022-10-18T08:35:59.818Z,100.00
2022-10-18T08:38:28.603Z,100.00
2022-10-18T08:40:55.088Z,100.00
2022-10-18T08:43:21.930Z,100.00
2022-10-18T08:45:50.829Z,100.00
2022-10-18T08:48:24.268Z,100.00
2022-10-18T08:50:53.114Z,100.00
2022-10-18T08:53:27.570Z,100.00
2022-10-18T08:56:26.882Z,100.00
2022-10-18T08:58:53.355Z,100.00
2022-10-18T09:01:36.127Z,100.00
2022-10-18T09:04:17.454Z,100.00
2022-10-18T09:07:20.609Z,100.00
2022-10-18T09:10:22.089Z,100.00
2022-10-18T09:13:23.862Z,100.00
2022-10-18T09:16:05.780Z,100.00
2022-10-18T09:18:57.317Z,100.00
2022-10-18T09:21:52.796Z,100.00
2022-10-18T09:24:27.199Z,100.00
2022-10-18T09:27:15.156Z,100.00
2022-10-18T09:29:47.619Z,100.00
2022-10-18T09:32:26.470Z,100.00
2022-10-18T09:35:07.912Z,100.00
2022-10-18T09:37:34.936Z,100.00
2022-10-18T09:40:19.377Z,100.00
2022-10-18T09:43:17.011Z,100.00
2022-10-18T09:45:45.652Z,100.00
2022-10-18T09:48:52.833Z,100.00
2022-10-18T09:51:23.487Z,100.00
2022-10-18T09:54:35.217Z,100.00
2022-10-18T09:57:09.998Z,100.00
2022-10-18T09:59:50.572Z,100.00
2022-10-18T10:02:22.281Z,100.00
2022-10-18T10:04:49.405Z,100.00
2022-10-18T10:07:21.843Z,100.00
2022-10-18T10:09:56.634Z,98.19
2022-10-18T10:12:37.430Z,97.58
2022-10-18T10:15:20.759Z,97.87
2022-10-18T10:18:21.171Z,98.92
2022-10-18T10:20:53.459Z,100.00
2022-10-18T10:23:24.988Z,99.12
2022-10-18T10:25:54.315Z,98.17
2022-10-18T10:28:24.050Z,97.44
2022-10-18T10:30:50.568Z,97.28
2022-10-18T10:33:34.443Z,97.33
2022-10-18T10:36:03.699Z,96.21
2022-10-18T10:38:31.433Z,92.00
2022-10-18T10:40:58.966Z,90.63
2022-10-18T10:43:37.593Z,88.58
2022-10-18T10:46:07.801Z,91.13
2022-10-18T10:48:41.863Z,91.23
2022-10-18T10:51:12.327Z,91.54
2022-10-18T10:53:57.194Z,91.09
2022-10-18T10:56:30.386Z,91.55
2022-10-18T10:59:13.269Z,91.86
2022-10-18T11:01:40.263Z,90.74
2022-10-18T11:04:32.162Z,90.80
2022-10-18T11:07:01.234Z,93.71
2022-10-18T11:09:36.065Z,86.40
2022-10-18T11:12:17.868Z,83.68
2022-10-18T11:14:46.852Z,89.31
2022-10-18T11:17:29.529Z,86.78
2022-10-18T11:20:11.769Z,85.83
2022-10-18T11:22:49.786Z,83.43
2022-10-18T11:25:17.882Z,83.10
2022-10-18T11:27:58.037Z,82.34
2022-10-18T11:30:35.339Z,82.73
2022-10-18T11:33:33.611Z,82.09
2022-10-18T11:36:15.440Z,80.39
2022-10-18T11:39:09.649Z,83.87
2022-10-18T11:41:40.540Z,80.79
2022-10-18T11:44:30.066Z,81.01
2022-10-18T11:47:19.413Z,79.48
2022-10-18T11:49:48.847Z,80.67
2022-10-18T11:52:37.077Z,78.92
2022-10-18T11:55:21.543Z,79.56
2022-10-18T11:58:02.280Z,78.21
2022-10-18T12:00:55.713Z,78.00
2022-10-18T12:03:22.139Z,76.67
2022-10-18T12:05:50.922Z,76.31
2022-10-18T12:08:20.162Z,74.63
2022-10-18T12:11:04.689Z,76.44
2022-10-18T12:13:49.196Z,77.50
2022-10-18T12:16:28.899Z,73.40
2022-10-18T12:19:16.149Z,72.48
2022-10-18T12:21:43.059Z,70.02
2022-10-18T12:24:16.081Z,69.94
2022-10-18T12:26:42.721Z,72.27
2022-10-18T12:29:22.740Z,74.05
2022-10-18T12:31:53.462Z,71.70
2022-10-18T12:34:22.830Z,71.98
2022-10-18T12:37:04.665Z,73.14
2022-10-18T12:39:51.836Z,69.80
2022-10-18T12:42:31.970Z,73.73
2022-10-18T12:45:05.427Z,70.20
2022-10-18T12:47:32.927Z,69.83
2022-10-18T12:50:03.523Z,71.42
2022-10-18T12:52:34.571Z,72.37
2022-10-18T12:55:05.344Z,69.86
2022-10-18T12:57:54.733Z,73.36
2022-10-18T13:00:30.290Z,71.97
2022-10-18T13:03:08.894Z,72.25
2022-10-18T13:05:56.034Z,72.59
2022-10-18T13:08:29.988Z,71.91
2022-10-18T13:11:08.853Z,72.51
2022-10-18T13:16:49.032Z,67.89
2022-10-18T13:19:27.289Z,69.23
2022-10-18T13:22:10.263Z,70.14
2022-10-18T13:24:42.300Z,70.35
2022-10-18T13:27:35.501Z,71.00
2022-10-18T13:30:41.363Z,70.42
2022-10-18T13:33:13.565Z,66.93
2022-10-18T13:36:12.856Z,66.01
2022-10-18T13:38:39.302Z,66.09
2022-10-18T13:41:06.792Z,65.89
2022-10-18T13:43:56.281Z,66.23
2022-10-18T13:46:25.439Z,63.90
2022-10-18T13:48:59.544Z,64.65
2022-10-18T13:51:38.033Z,64.25
2022-10-18T13:54:38.480Z,63.68
2022-10-18T13:57:27.629Z,63.35
2022-10-18T14:00:31.575Z,63.85
2022-10-18T14:03:55.497Z,64.72
2022-10-18T14:06:23.687Z,61.06
2022-10-18T14:09:09.515Z,62.59
2022-10-18T14:11:51.176Z,61.16
2022-10-18T14:14:20.528Z,66.39
2022-10-18T14:16:54.538Z,60.33
2022-10-18T14:19:31.567Z,60.34
2022-10-18T14:22:19.810Z,61.15
2022-10-18T14:24:57.301Z,61.48
2022-10-18T14:27:35.077Z,59.19
2022-10-18T14:30:17.539Z,60.43
2022-10-18T14:32:54.335Z,57.61
2022-10-18T14:35:39.623Z,59.38
2022-10-18T14:38:13.527Z,58.71
2022-10-18T14:40:40.477Z,58.50
2022-10-18T14:43:15.541Z,57.26
2022-10-18T14:45:42.671Z,58.54
2022-10-18T14:48:17.521Z,58.82
2022-10-18T14:50:48.224Z,58.75
2022-10-18T14:53:21.919Z,57.83
2022-10-18T14:55:56.343Z,58.16
2022-10-18T14:58:23.266Z,57.21
2022-10-18T15:00:49.896Z,57.83
2022-10-18T15:03:17.836Z,56.93
2022-10-18T15:06:00.457Z,58.82
2022-10-18T15:08:32.571Z,59.55
2022-10-18T15:10:59.090Z,58.95
2022-10-18T15:13:26.410Z,59.18
2022-10-18T15:15:54.009Z,58.98
2022-10-18T15:18:24.036Z,58.02
2022-10-18T15:21:24.155Z,59.99
2022-10-18T15:23:51.866Z,60.11
2022-10-18T15:26:29.393Z,61.30
2022-10-18T15:29:00.485Z,60.04
2022-10-18T15:31:32.952Z,59.95
2022-10-18T15:34:15.187Z,61.16
2022-10-18T15:39:31.640Z,63.27
2022-10-18T15:42:00.925Z,60.74
2022-10-18T15:44:46.733Z,60.43
2022-10-18T15:47:13.210Z,60.19
2022-10-18T15:49:45.411Z,61.92
2022-10-18T15:52:35.238Z,63.19
2022-10-18T15:55:29.559Z,63.74
2022-10-18T15:58:17.814Z,62.41
2022-10-18T16:00:46.298Z,63.26
2022-10-18T16:03:13.549Z,63.22
2022-10-18T16:05:40.632Z,63.99
2022-10-18T16:08:18.422Z,65.34
2022-10-18T16:10:44.867Z,66.22
2022-10-18T16:13:11.310Z,66.26
2022-10-18T16:15:38.152Z,66.87
2022-10-18T16:18:04.621Z,68.57
2022-10-18T16:20:31.313Z,68.62
2022-10-18T16:22:57.759Z,67.92
2022-10-18T16:25:24.309Z,68.24
2022-10-18T16:27:50.790Z,68.71
2022-10-18T16:30:21.010Z,70.20
2022-10-18T16:32:48.800Z,70.76
2022-10-18T16:35:15.453Z,70.31
2022-10-18T16:37:41.977Z,70.88
2022-10-18T16:40:23.163Z,71.98
2022-10-18T16:42:49.672Z,71.32
2022-10-18T16:45:16.438Z,72.33
2022-10-18T16:47:42.947Z,72.78
2022-10-18T16:50:19.688Z,71.59
2022-10-18T16:52:46.189Z,72.21
2022-10-18T16:55:20.995Z,71.05
2022-10-18T16:57:48.353Z,71.82
2022-10-18T17:00:21.201Z,72.04
2022-10-18T17:02:49.062Z,72.96
2022-10-18T17:05:16.894Z,72.85
2022-10-18T17:07:43.880Z,72.90
2022-10-18T17:10:16.805Z,73.25
2022-10-18T17:12:43.522Z,72.64
2022-10-18T17:15:11.084Z,72.99
2022-10-18T17:17:37.771Z,72.79
2022-10-18T17:20:06.069Z,72.92
2022-10-18T17:22:32.760Z,73.04
2022-10-18T17:24:59.239Z,73.60
2022-10-18T17:27:25.774Z,74.18
2022-10-18T17:29:52.236Z,74.27
2022-10-18T17:32:18.712Z,74.72
2022-10-18T17:34:45.233Z,75.09
2022-10-18T17:37:11.815Z,74.96
2022-10-18T17:39:38.321Z,74.91
2022-10-18T17:42:04.799Z,74.42
2022-10-18T17:44:31.361Z,75.35
2022-10-18T17:46:57.824Z,75.34
2022-10-18T17:49:24.323Z,75.66
2022-10-18T17:51:50.766Z,75.64
2022-10-18T17:54:17.217Z,75.98
2022-10-18T17:56:45.072Z,75.47
2022-10-18T17:59:11.533Z,75.95
2022-10-18T18:01:38.245Z,75.60
2022-10-18T18:04:04.922Z,75.41
2022-10-18T18:06:34.952Z,75.97
2022-10-18T18:09:06.758Z,75.70
2022-10-18T18:11:33.817Z,75.57
2022-10-18T18:14:00.412Z,75.84
2022-10-18T18:16:29.539Z,75.86
2022-10-18T18:18:57.846Z,76.49
2022-10-18T18:21:25.613Z,76.08
2022-10-18T18:23:52.318Z,76.14
2022-10-18T18:26:19.272Z,75.68
2022-10-18T18:28:45.959Z,76.20
2022-10-18T18:31:18.379Z,75.97
2022-10-18T18:33:45.063Z,75.95
2022-10-18T18:36:11.987Z,76.03
2022-10-18T18:38:40.082Z,75.95
2022-10-18T18:41:12.792Z,76.31
2022-10-18T18:43:43.877Z,76.06
2022-10-18T18:46:12.524Z,76.26
2022-10-18T18:48:40.738Z,75.97
2022-10-18T18:51:11.150Z,76.23
2022-10-18T18:53:39.948Z,76.04
2022-10-18T18:56:08.726Z,76.26
2022-10-18T18:58:36.286Z,75.63
2022-10-18T19:01:14.741Z,76.09
2022-10-18T19:03:42.729Z,75.98
2022-10-18T19:06:13.673Z,75.85
2022-10-18T19:08:40.352Z,76.00
2022-10-18T19:11:09.332Z,76.00
2022-10-18T19:13:36.362Z,76.17
2022-10-18T19:16:18.142Z,77.07
2022-10-18T19:18:53.381Z,76.75
2022-10-18T19:21:20.512Z,76.16
2022-10-18T19:23:47.085Z,76.52
2022-10-18T19:26:23.846Z,76.67
2022-10-18T19:28:50.322Z,76.63
2022-10-18T19:31:16.928Z,76.64
2022-10-18T19:33:48.761Z,77.01
2022-10-18T19:36:22.375Z,77.04
2022-10-18T19:38:48.834Z,76.88
2022-10-18T19:41:15.339Z,77.00
2022-10-18T19:43:41.832Z,77.18
2022-10-18T19:46:08.352Z,77.32
2022-10-18T19:48:34.817Z,77.13
2022-10-18T19:51:07.917Z,77.67
2022-10-18T19:53:36.008Z,77.52
2022-10-18T19:56:04.001Z,77.20
2022-10-18T19:58:30.539Z,77.86
2022-10-18T20:00:57.635Z,78.32
2022-10-18T20:03:24.749Z,78.05
2022-10-18T20:05:58.090Z,78.10
2022-10-18T20:08:25.544Z,78.04
2022-10-18T20:10:52.908Z,78.19
2022-10-18T20:13:19.496Z,78.17
2022-10-18T20:15:50.279Z,78.65
2022-10-18T20:18:18.505Z,78.60
2022-10-18T20:20:48.121Z,79.02
2022-10-18T20:23:16.740Z,78.49
2022-10-18T20:25:43.804Z,78.65
2022-10-18T20:28:10.284Z,78.80
2022-10-18T20:30:36.768Z,79.03
2022-10-18T20:33:03.307Z,79.06
2022-10-18T20:35:29.776Z,79.21
2022-10-18T20:37:56.273Z,79.18
2022-10-18T20:40:22.728Z,79.32
2022-10-18T20:42:51.460Z,79.38
2022-10-18T20:45:17.980Z,79.89
2022-10-18T20:47:44.429Z,80.07
2022-10-18T20:50:11.008Z,80.40
2022-10-18T20:52:37.512Z,80.09
2022-10-18T20:55:04.239Z,80.44
2022-10-18T20:57:34.162Z,80.58
2022-10-18T21:00:03.879Z,80.67
2022-10-18T21:02:30.427Z,80.73
2022-10-18T21:04:56.942Z,81.31
2022-10-18T21:07:23.422Z,81.05
2022-10-18T21:09:49.955Z,80.98
2022-10-18T21:12:16.431Z,80.72
2022-10-18T21:14:42.918Z,81.24
2022-10-18T21:17:09.438Z,81.40
2022-10-18T21:19:35.957Z,81.47
2022-10-18T21:22:02.434Z,81.21
2022-10-18T21:24:29.930Z,81.70
2022-10-18T21:26:56.807Z,81.73
2022-10-18T21:29:26.874Z,81.80
2022-10-18T21:31:55.537Z,82.35
2022-10-18T21:34:22.154Z,81.97
2022-10-18T21:36:48.726Z,81.98
2022-10-18T21:39:19.890Z,82.27
2022-10-18T21:41:46.969Z,82.01
2022-10-18T21:44:14.027Z,82.10
2022-10-18T21:46:42.904Z,82.20
2022-10-18T21:49:10.315Z,82.25
2022-10-18T21:51:37.221Z,82.21
2022-10-18T21:54:03.867Z,81.80
2022-10-18T21:56:32.904Z,82.94
2022-10-18T21:58:59.979Z,82.62
2022-10-18T22:01:32.548Z,82.17
2022-10-18T22:04:00.954Z,82.35
2022-10-18T22:06:29.980Z,82.43
2022-10-18T22:09:01.957Z,82.57
2022-10-18T22:11:32.527Z,82.54
2022-10-18T22:13:59.379Z,82.48
2022-10-18T22:16:26.698Z,82.50
2022-10-18T22:18:57.808Z,82.55
2022-10-18T22:21:24.302Z,82.68
2022-10-18T22:23:53.140Z,82.40
2022-10-18T22:26:25.880Z,82.38
2022-10-18T22:28:57.709Z,82.63
2022-10-18T22:31:27.624Z,82.63
2022-10-18T22:33:59.843Z,82.56
2022-10-18T22:36:27.255Z,82.56
2022-10-18T22:38:54.139Z,82.55
2022-10-18T22:41:20.658Z,82.63
2022-10-18T22:43:49.922Z,82.56
2022-10-18T22:46:16.939Z,82.84
2022-10-18T22:48:43.964Z,82.86
2022-10-18T22:51:11.309Z,82.77
2022-10-18T22:53:39.500Z,82.96
2022-10-18T22:56:07.083Z,82.84
2022-10-18T22:58:33.746Z,82.44
2022-10-18T23:01:02.171Z,83.21
2022-10-18T23:03:28.823Z,82.98
2022-10-18T23:05:55.657Z,82.64
2022-10-18T23:08:22.173Z,83.04
2022-10-18T23:10:53.713Z,82.95
2022-10-18T23:13:20.187Z,82.89
2022-10-18T23:15:46.699Z,83.05
2022-10-18T23:18:13.181Z,83.17
2022-10-18T23:20:39.673Z,83.01
2022-10-18T23:23:06.163Z,83.01
2022-10-18T23:25:36.431Z,83.32
2022-10-18T23:28:03.679Z,83.41
2022-10-18T23:30:30.726Z,82.98
2022-10-18T23:32:57.220Z,83.10
2022-10-18T23:35:23.738Z,83.43
2022-10-18T23:37:51.328Z,83.60
2022-10-18T23:40:17.847Z,83.78
2022-10-18T23:42:44.302Z,83.34
2022-10-18T23:45:10.971Z,83.53
2022-10-18T23:47:37.520Z,83.63
2022-10-18T23:50:04.828Z,83.38
2022-10-18T23:52:31.306Z,83.38
2022-10-18T23:54:57.775Z,83.25
2022-10-18T23:57:24.229Z,83.54
2022-10-18T23:59:50.692Z,83.29
